createdAt,value
2022-09-23T00:00:59.800Z,98966.91
2022-09-23T00:03:39.825Z,98968.84
2022-09-23T00:06:14.177Z,98967.72
2022-09-23T00:08:47.588Z,98963.63
2022-09-23T00:11:22.949Z,98967.19
2022-09-23T00:13:58.471Z,98960.59
2022-09-23T00:16:34.042Z,98960.59
2022-09-23T00:19:07.530Z,98955.09
2022-09-23T00:21:40.745Z,98957.84
2022-09-23T00:24:13.444Z,98958.66
2022-09-23T00:26:48.044Z,98958.94
2022-09-23T00:29:20.718Z,98955.09
2022-09-23T00:31:54.335Z,98954.28
2022-09-23T00:34:27.175Z,98953.44
2022-09-23T00:37:00.592Z,98942.47
2022-09-23T00:39:33.392Z,98944.09
2022-09-23T00:42:08.029Z,98942.47
2022-09-23T00:44:48.698Z,98942.16
2022-09-23T00:47:23.778Z,98950.13
2022-09-23T00:50:00.338Z,98945.72
2022-09-23T00:52:34.211Z,98940.53
2022-09-23T00:55:08.742Z,98934.22
2022-09-23T00:57:45.066Z,98936.66
2022-09-23T01:00:17.810Z,98922.94
2022-09-23T01:02:51.653Z,98935.84
2022-09-23T01:05:24.503Z,98934.75
2022-09-23T01:07:58.509Z,98935.84
2022-09-23T01:10:34.755Z,98933.09
2022-09-23T01:13:16.050Z,98933.09
2022-09-23T01:15:50.520Z,98938.59
2022-09-23T01:18:27.093Z,98928.72
2022-09-23T01:21:07.560Z,98935.03
2022-09-23T01:23:59.388Z,98927.59
2022-09-23T01:26:43.568Z,98934.75
2022-09-23T01:29:33.349Z,98933.09
2022-09-23T01:32:13.678Z,98932.28
2022-09-23T01:34:49.442Z,98935.84
2022-09-23T01:37:25.920Z,98934.75
2022-09-23T01:40:02.861Z,98931.47
2022-09-23T01:42:39.548Z,98935.31
2022-09-23T01:45:16.169Z,98933.38
2022-09-23T01:47:53.570Z,98929.00
2022-09-23T01:50:46.501Z,98931.75
2022-09-23T01:53:22.205Z,98929.81
2022-09-23T01:55:57.851Z,98932.28
2022-09-23T01:58:34.647Z,98936.97
2022-09-23T02:01:09.399Z,98932.00
2022-09-23T02:03:46.598Z,98931.75
2022-09-23T02:06:22.740Z,98929.53
2022-09-23T02:09:00.481Z,98938.06
2022-09-23T02:11:36.286Z,98931.47
2022-09-23T02:14:14.853Z,98933.38
2022-09-23T02:16:50.048Z,98933.09
2022-09-23T02:19:29.254Z,98932.28
2022-09-23T02:22:06.387Z,98929.81
2022-09-23T02:24:40.683Z,98933.69
2022-09-23T02:27:19.414Z,98924.31
2022-09-23T02:29:56.491Z,98922.69
2022-09-23T02:32:33.010Z,98928.19
2022-09-23T02:35:12.351Z,98930.13
2022-09-23T02:37:48.087Z,98924.31
2022-09-23T02:40:23.896Z,98930.13
2022-09-23T02:43:02.741Z,98927.38
2022-09-23T02:45:38.955Z,98930.94
2022-09-23T02:48:14.727Z,98921.88
2022-09-23T02:50:49.149Z,98924.31
2022-09-23T02:53:23.922Z,98929.81
2022-09-23T02:55:57.738Z,98928.19
2022-09-23T02:58:30.922Z,98922.09
2022-09-23T03:01:08.879Z,98922.09
2022-09-23T03:03:45.801Z,98929.00
2022-09-23T03:06:27.653Z,98930.63
2022-09-23T03:09:03.594Z,98929.00
2022-09-23T03:11:39.375Z,98930.63
2022-09-23T03:14:18.030Z,98929.00
2022-09-23T03:16:54.049Z,98930.63
2022-09-23T03:19:30.089Z,98933.38
2022-09-23T03:22:08.198Z,98931.75
2022-09-23T03:24:44.876Z,98932.88
2022-09-23T03:27:19.508Z,98928.19
2022-09-23T03:29:54.371Z,98932.28
2022-09-23T03:32:29.130Z,98932.56
2022-09-23T03:35:04.532Z,98932.56
2022-09-23T03:37:41.153Z,98934.22
2022-09-23T03:40:16.791Z,98928.19
2022-09-23T03:42:50.230Z,98936.44
2022-09-23T03:45:26.102Z,98934.22
2022-09-23T03:47:59.516Z,98921.28
2022-09-23T03:50:32.649Z,98922.34
2022-09-23T03:53:06.922Z,98923.44
2022-09-23T03:56:16.533Z,98911.09
2022-09-23T03:59:08.368Z,98919.88
2022-09-23T04:01:41.828Z,98925.38
2022-09-23T04:04:14.883Z,98919.34
2022-09-23T04:06:48.320Z,98922.94
2022-09-23T04:09:22.861Z,98917.72
2022-09-23T04:11:56.082Z,98917.72
2022-09-23T04:14:29.214Z,98910.59
2022-09-23T04:17:02.773Z,98916.06
2022-09-23T04:19:36.597Z,98909.75
2022-09-23T04:22:10.319Z,98918.00
2022-09-23T04:24:45.242Z,98913.31
2022-09-23T04:27:18.708Z,98909.75
2022-09-23T04:29:52.085Z,98919.66
2022-09-23T04:32:25.632Z,98917.19
2022-09-23T04:34:59.076Z,98914.44
2022-09-23T04:37:32.516Z,98914.16
2022-09-23T04:40:08.089Z,98911.09
2022-09-23T04:42:41.485Z,98901.75
2022-09-23T04:45:14.864Z,98907.84
2022-09-23T04:47:48.100Z,98910.59
2022-09-23T04:50:21.374Z,98910.09
2022-09-23T04:52:55.113Z,98906.19
2022-09-23T04:55:30.232Z,98910.09
2022-09-23T04:58:03.631Z,98908.13
2022-09-23T05:00:36.963Z,98901.50
2022-09-23T05:03:10.827Z,98910.28
2022-09-23T05:05:44.184Z,98910.28
2022-09-23T05:08:17.542Z,98914.97
2022-09-23T05:10:57.457Z,98913.03
2022-09-23T05:13:31.164Z,98928.19
2022-09-23T05:16:05.849Z,98931.75
2022-09-23T05:18:42.697Z,98924.31
2022-09-23T05:21:16.852Z,98923.50
2022-09-23T05:23:54.155Z,98928.19
2022-09-23T05:26:29.286Z,98931.47
2022-09-23T05:29:02.723Z,98919.66
2022-09-23T05:31:36.716Z,98932.28
2022-09-23T05:34:10.306Z,98933.09
2022-09-23T05:36:43.724Z,98935.84
2022-09-23T05:39:16.983Z,98932.56
2022-09-23T05:41:52.918Z,98934.22
2022-09-23T05:44:26.577Z,98929.00
2022-09-23T05:46:59.733Z,98925.97
2022-09-23T05:49:55.299Z,98926.78
2022-09-23T05:52:26.092Z,98928.44
2022-09-23T05:54:59.388Z,98930.34
2022-09-23T05:57:33.971Z,98938.59
2022-09-23T06:00:07.877Z,98934.75
2022-09-23T06:02:45.232Z,98931.16
2022-09-23T06:05:18.542Z,98924.84
2022-09-23T06:07:51.889Z,98924.56
2022-09-23T06:10:25.187Z,98934.75
2022-09-23T06:12:59.993Z,98933.63
2022-09-23T06:15:33.473Z,98933.63
2022-09-23T06:18:07.295Z,98929.25
2022-09-23T06:20:40.725Z,98925.16
2022-09-23T06:23:14.045Z,98936.09
2022-09-23T06:25:47.422Z,98942.41
2022-09-23T06:28:23.014Z,98939.38
2022-09-23T06:30:58.118Z,98939.66
2022-09-23T06:33:37.128Z,98938.53
2022-09-23T06:36:10.802Z,98944.88
2022-09-23T06:38:45.402Z,98935.78
2022-09-23T06:41:20.651Z,98952.28
2022-09-23T06:43:55.151Z,98941.81
2022-09-23T06:46:28.410Z,98939.59
2022-09-23T06:49:02.953Z,98946.72
2022-09-23T06:51:36.721Z,98943.13
2022-09-23T06:54:11.112Z,98955.19
2022-09-23T06:56:45.120Z,98947.25
2022-09-23T06:59:19.715Z,98947.25
2022-09-23T07:01:53.093Z,98948.88
2022-09-23T07:04:29.341Z,98954.38
2022-09-23T07:07:02.758Z,98959.28
2022-09-23T07:09:35.796Z,98953.22
2022-09-23T07:12:09.191Z,98956.84
2022-09-23T07:14:44.167Z,98962.91
2022-09-23T07:17:17.539Z,98959.63
2022-09-23T07:19:51.690Z,98956.59
2022-09-23T07:22:26.578Z,98962.91
2022-09-23T07:24:59.854Z,98964.28
2022-09-23T07:27:33.418Z,98969.81
2022-09-23T07:30:18.535Z,98971.41
2022-09-23T07:32:56.271Z,98966.19
2022-09-23T07:35:29.366Z,98965.97
2022-09-23T07:38:02.586Z,98966.84
2022-09-23T07:40:36.108Z,98964.59
2022-09-23T07:43:09.823Z,98962.78
2022-09-23T07:45:45.608Z,98960.47
2022-09-23T07:48:19.074Z,98966.44
2022-09-23T07:50:52.239Z,98965.81
2022-09-23T07:53:25.565Z,98964.13
2022-09-23T07:55:59.675Z,98966.78
2022-09-23T07:58:33.560Z,98956.88
2022-09-23T08:01:08.995Z,98962.00
2022-09-23T08:03:43.856Z,98955.91
2022-09-23T08:06:16.903Z,98957.03
2022-09-23T08:08:53.282Z,98960.31
2022-09-23T08:11:27.386Z,98956.38
2022-09-23T08:14:00.671Z,98957.13
2022-09-23T08:16:35.123Z,98956.00
2022-09-23T08:19:09.050Z,98961.22
2022-09-23T08:21:42.572Z,98964.84
2022-09-23T08:24:17.416Z,98964.56
2022-09-23T08:26:53.330Z,98958.25
2022-09-23T08:29:26.958Z,98959.06
2022-09-23T08:32:01.496Z,98958.75
2022-09-23T08:34:35.924Z,98958.84
2022-09-23T08:37:10.534Z,98952.22
2022-09-23T08:39:43.722Z,98948.88
2022-09-23T08:42:18.901Z,98953.50
2022-09-23T08:44:55.558Z,98953.66
2022-09-23T08:47:31.560Z,98949.94
2022-09-23T08:50:07.268Z,98950.28
2022-09-23T08:52:43.641Z,98951.34
2022-09-23T08:55:17.474Z,98934.03
2022-09-23T08:58:23.438Z,98949.59
2022-09-23T09:00:54.817Z,98954.28
2022-09-23T09:03:32.798Z,98949.34
2022-09-23T09:06:06.137Z,98953.97
2022-09-23T09:08:39.884Z,98959.19
2022-09-23T09:11:15.019Z,98947.38
2022-09-23T09:13:54.484Z,98946.22
2022-09-23T09:16:58.937Z,98942.66
2022-09-23T09:19:56.695Z,98944.50
2022-09-23T09:22:38.363Z,98947.19
2022-09-23T09:25:18.986Z,98942.22
2022-09-23T09:27:53.052Z,98940.50
2022-09-23T09:30:26.511Z,98927.34
2022-09-23T09:33:03.125Z,98927.94
2022-09-23T09:35:41.852Z,98932.91
2022-09-23T09:38:15.367Z,98929.34
2022-09-23T09:40:49.148Z,98930.41
2022-09-23T09:43:23.205Z,98913.66
2022-09-23T09:46:03.254Z,98910.91
2022-09-23T09:48:39.281Z,98911.22
2022-09-23T09:51:21.464Z,98918.63
2022-09-23T09:53:56.116Z,98912.84
2022-09-23T09:56:32.594Z,98913.59
2022-09-23T09:59:10.721Z,98916.66
2022-09-23T10:01:43.699Z,98919.69
2022-09-23T10:04:23.711Z,98913.94
2022-09-23T10:07:09.417Z,98903.78
2022-09-23T10:09:49.062Z,98899.91
2022-09-23T10:12:22.897Z,98898.28
2022-09-23T10:14:57.376Z,98897.69
2022-09-23T10:17:33.192Z,98889.44
2022-09-23T10:20:09.079Z,98891.66
2022-09-23T10:22:44.102Z,98896.63
2022-09-23T10:25:20.685Z,98902.72
2022-09-23T10:27:53.969Z,98902.13
2022-09-23T10:30:29.071Z,98899.84
2022-09-23T10:33:03.095Z,98896.81
2022-09-23T10:35:36.498Z,98893.00
2022-09-23T10:38:11.758Z,98898.81
2022-09-23T10:41:02.581Z,98898.75
2022-09-23T10:43:55.750Z,98890.03
2022-09-23T10:46:42.503Z,98873.75
2022-09-23T10:49:23.582Z,98890.94
2022-09-23T10:52:02.814Z,98889.00
2022-09-23T10:54:45.836Z,98888.75
2022-09-23T10:57:44.871Z,98878.88
2022-09-23T11:00:23.055Z,98878.88
2022-09-23T11:03:18.346Z,98872.34
2022-09-23T11:05:58.978Z,98878.28
2022-09-23T11:08:42.665Z,98873.59
2022-09-23T11:11:24.622Z,98871.44
2022-09-23T11:14:15.851Z,98874.44
2022-09-23T11:16:55.461Z,98862.31
2022-09-23T11:19:43.399Z,98857.94
2022-09-23T11:22:32.381Z,98845.75
2022-09-23T11:25:23.951Z,98848.56
2022-09-23T11:28:07.118Z,98845.06
2022-09-23T11:30:44.722Z,98845.38
2022-09-23T11:33:27.972Z,98845.69
2022-09-23T11:36:04.232Z,98839.66
2022-09-23T11:38:38.944Z,98827.59
2022-09-23T11:41:18.681Z,98832.13
2022-09-23T11:43:55.777Z,98838.03
2022-09-23T11:46:33.093Z,98828.66
2022-09-23T11:49:10.252Z,98831.94
2022-09-23T11:51:45.985Z,98833.56
2022-09-23T11:54:21.664Z,98836.41
2022-09-23T11:56:57.063Z,98831.84
2022-09-23T11:59:40.486Z,98826.72
2022-09-23T12:02:22.185Z,98825.97
2022-09-23T12:05:01.514Z,98816.91
2022-09-23T12:07:43.451Z,98819.94
2022-09-23T12:10:17.263Z,98806.50
2022-09-23T12:12:56.181Z,98814.44
2022-09-23T12:15:41.258Z,98802.63
2022-09-23T12:18:35.898Z,98807.94
2022-09-23T12:21:33.020Z,98805.47
2022-09-23T12:24:24.698Z,98798.88
2022-09-23T12:27:00.238Z,98792.84
2022-09-23T12:29:34.087Z,98798.25
2022-09-23T12:32:10.045Z,98790.63
2022-09-23T12:34:48.841Z,98790.00
2022-09-23T12:37:27.215Z,98783.38
2022-09-23T12:40:02.387Z,98785.84
2022-09-23T12:42:36.583Z,98782.50
2022-09-23T12:45:34.691Z,98779.47
2022-09-23T12:48:23.524Z,98782.13
2022-09-23T12:51:07.780Z,98776.53
2022-09-23T12:53:55.619Z,98773.66
2022-09-23T12:56:49.872Z,98768.16
2022-09-23T12:59:26.226Z,98771.03
2022-09-23T13:02:11.830Z,98770.53
2022-09-23T13:05:03.388Z,98763.25
2022-09-23T13:07:42.016Z,98767.84
2022-09-23T13:10:18.007Z,98760.72
2022-09-23T13:12:52.494Z,98762.91
2022-09-23T13:15:29.011Z,98756.69
2022-09-23T13:18:20.561Z,98747.28
2022-09-23T13:20:55.047Z,98747.44
2022-09-23T13:23:31.304Z,98745.81
2022-09-23T13:26:12.589Z,98740.09
2022-09-23T13:28:55.527Z,98738.78
2022-09-23T13:31:28.590Z,98735.63
2022-09-23T13:34:03.026Z,98734.41
2022-09-23T13:36:44.442Z,98728.72
2022-09-23T13:39:24.575Z,98721.38
2022-09-23T13:42:02.906Z,98723.72
2022-09-23T13:44:36.221Z,98726.16
2022-09-23T13:47:13.475Z,98720.88
2022-09-23T13:49:48.018Z,98719.16
2022-09-23T13:52:26.435Z,98720.06
2022-09-23T13:55:00.978Z,98711.44
2022-09-23T13:57:35.420Z,98712.63
2022-09-23T14:00:18.572Z,98707.19
2022-09-23T14:02:52.951Z,98709.78
2022-09-23T14:05:27.629Z,98699.16
2022-09-23T14:08:01.177Z,98695.28
2022-09-23T14:10:35.853Z,98700.97
2022-09-23T14:13:14.737Z,98702.19
2022-09-23T14:15:49.140Z,98702.69
2022-09-23T14:18:27.396Z,98696.06
2022-09-23T14:21:00.919Z,98702.59
2022-09-23T14:23:34.158Z,98697.06
2022-09-23T14:26:08.728Z,98698.56
2022-09-23T14:28:42.121Z,98707.34
2022-09-23T14:31:15.593Z,98696.22
2022-09-23T14:33:48.777Z,98703.13
2022-09-23T14:36:39.932Z,98703.03
2022-09-23T14:39:13.539Z,98693.00
2022-09-23T14:41:48.055Z,98694.19
2022-09-23T14:44:22.782Z,98688.13
2022-09-23T14:46:58.667Z,98682.78
2022-09-23T14:49:32.843Z,98678.16
2022-09-23T14:52:06.952Z,98684.88
2022-09-23T14:54:44.684Z,98684.06
2022-09-23T14:57:31.312Z,98689.88
2022-09-23T15:00:14.767Z,98692.41
2022-09-23T15:02:58.843Z,98687.72
2022-09-23T15:05:33.641Z,98683.63
2022-09-23T15:08:07.496Z,98683.63
2022-09-23T15:10:41.369Z,98674.25
2022-09-23T15:13:17.868Z,98682.38
2022-09-23T15:15:52.863Z,98679.25
2022-09-23T15:18:27.646Z,98684.88
2022-09-23T15:21:02.551Z,98681.22
2022-09-23T15:23:36.980Z,98673.78
2022-09-23T15:26:11.519Z,98670.81
2022-09-23T15:28:46.509Z,98662.22
2022-09-23T15:31:20.706Z,98665.75
2022-09-23T15:33:53.877Z,98664.78
2022-09-23T15:36:28.306Z,98668.06
2022-09-23T15:39:03.238Z,98670.09
2022-09-23T15:41:36.658Z,98661.19
2022-09-23T15:44:14.331Z,98661.03
2022-09-23T15:46:48.547Z,98665.72
2022-09-23T15:49:26.528Z,98660.22
2022-09-23T15:52:00.564Z,98663.88
2022-09-23T15:54:33.779Z,98667.97
2022-09-23T15:57:07.333Z,98655.91
2022-09-23T15:59:42.019Z,98658.97
2022-09-23T16:02:21.312Z,98656.22
2022-09-23T16:04:54.555Z,98660.22
2022-09-23T16:07:28.697Z,98666.09
2022-09-23T16:10:02.227Z,98657.97
2022-09-23T16:12:35.366Z,98663.06
2022-09-23T16:15:13.401Z,98659.28
2022-09-23T16:17:46.597Z,98655.94
2022-09-23T16:20:19.955Z,98656.44
2022-09-23T16:22:54.627Z,98660.63
2022-09-23T16:25:29.537Z,98662.03
2022-09-23T16:28:03.267Z,98663.97
2022-09-23T16:30:37.948Z,98660.22
2022-09-23T16:33:11.313Z,98662.97
2022-09-23T16:35:44.481Z,98663.06
2022-09-23T16:38:17.960Z,98671.84
2022-09-23T16:40:51.494Z,98666.13
2022-09-23T16:43:24.774Z,98676.31
2022-09-23T16:45:59.436Z,98671.41
2022-09-23T16:48:32.905Z,98672.84
2022-09-23T16:51:06.215Z,98670.41
2022-09-23T16:53:39.706Z,98677.03
2022-09-23T16:56:13.219Z,98674.34
2022-09-23T16:58:46.463Z,98668.56
2022-09-23T17:01:39.518Z,98667.53
2022-09-23T17:04:13.450Z,98668.84
2022-09-23T17:06:51.959Z,98673.13
2022-09-23T17:09:26.366Z,98671.81
2022-09-23T17:12:04.226Z,98670.38
2022-09-23T17:14:37.692Z,98664.66
2022-09-23T17:17:12.340Z,98664.97
2022-09-23T17:19:45.895Z,98660.59
2022-09-23T17:22:19.124Z,98663.63
2022-09-23T17:24:52.544Z,98667.50
2022-09-23T17:27:25.918Z,98662.00
2022-09-23T17:29:59.404Z,98667.50
2022-09-23T17:32:34.264Z,98667.28
2022-09-23T17:35:08.135Z,98659.34
2022-09-23T17:37:41.339Z,98665.94
2022-09-23T17:40:14.712Z,98667.06
2022-09-23T17:42:48.117Z,98664.31
2022-09-23T17:45:21.187Z,98661.94
2022-09-23T17:47:56.007Z,98660.81
2022-09-23T17:50:31.272Z,98670.19
2022-09-23T17:53:05.087Z,98663.91
2022-09-23T17:55:38.188Z,98666.03
2022-09-23T17:58:11.340Z,98667.44
2022-09-23T18:00:47.146Z,98671.34
2022-09-23T18:03:21.730Z,98680.06
2022-09-23T18:05:55.105Z,98675.59
2022-09-23T18:08:31.206Z,98680.91
2022-09-23T18:11:11.664Z,98678.44
2022-09-23T18:13:48.723Z,98678.78
2022-09-23T18:16:23.809Z,98669.91
2022-09-23T18:18:59.418Z,98678.25
2022-09-23T18:21:34.107Z,98680.91
2022-09-23T18:27:02.787Z,98674.38
2022-09-23T18:29:38.617Z,98673.75
2022-09-23T18:32:14.261Z,98674.91
2022-09-23T18:34:49.246Z,98670.31
2022-09-23T18:37:22.437Z,98676.50
2022-09-23T18:39:55.564Z,98668.59
2022-09-23T18:42:29.646Z,98670.53
2022-09-23T18:45:04.944Z,98668.88
2022-09-23T18:47:55.368Z,98667.44
2022-09-23T18:50:43.666Z,98667.56
2022-09-23T18:53:16.712Z,98665.63
2022-09-23T18:55:50.009Z,98662.34
2022-09-23T18:58:23.446Z,98664.59
2022-09-23T19:00:56.680Z,98671.13
2022-09-23T19:03:29.902Z,98674.97
2022-09-23T19:06:05.759Z,98672.22
2022-09-23T19:08:39.400Z,98666.22
2022-09-23T19:11:14.357Z,98662.94
2022-09-23T19:13:47.760Z,98666.22
2022-09-23T19:16:21.890Z,98662.94
2022-09-23T19:18:55.107Z,98661.00
2022-09-23T19:21:30.451Z,98663.38
2022-09-23T19:24:04.716Z,98672.03
2022-09-23T19:26:40.783Z,98664.41
2022-09-23T19:29:14.844Z,98671.00
2022-09-23T19:31:49.071Z,98664.50
2022-09-23T19:34:24.803Z,98665.03
2022-09-23T19:36:59.753Z,98659.53
2022-09-23T19:39:34.616Z,98667.44
2022-09-23T19:42:07.925Z,98665.84
2022-09-23T19:44:41.092Z,98672.16
2022-09-23T19:47:17.402Z,98669.91
2022-09-23T19:49:50.912Z,98664.41
2022-09-23T19:52:25.727Z,98666.03
2022-09-23T19:55:01.077Z,98671.53
2022-09-23T19:57:34.543Z,98666.03
2022-09-23T20:00:08.258Z,98663.28
2022-09-23T20:02:45.778Z,98673.16
2022-09-23T20:05:20.424Z,98666.84
2022-09-23T20:07:55.482Z,98661.34
2022-09-23T20:10:29.200Z,98667.59
2022-09-23T20:13:03.086Z,98660.88
2022-09-23T20:15:36.209Z,98668.09
2022-09-23T20:18:10.148Z,98666.84
2022-09-23T20:20:43.441Z,98659.19
2022-09-23T20:23:18.060Z,98657.19
2022-09-23T20:26:13.509Z,98650.19
2022-09-23T20:28:46.940Z,98652.63
2022-09-23T20:31:21.971Z,98656.88
2022-09-23T20:33:58.260Z,98652.19
2022-09-23T20:56:29.202Z,98643.81
2022-09-23T20:59:03.939Z,98646.91
2022-09-23T21:01:37.623Z,98651.97
2022-09-23T21:04:11.201Z,98637.41
2022-09-23T21:06:44.632Z,98638.53
2022-09-23T21:09:18.352Z,98645.16
2022-09-23T21:11:53.172Z,98646.78
2022-09-23T21:14:26.590Z,98651.16
2022-09-23T21:17:00.190Z,98647.81
2022-09-23T21:19:35.185Z,98649.75
2022-09-23T21:22:09.183Z,98647.81
2022-09-23T21:25:25.856Z,98647.28
2022-09-23T21:27:38.032Z,98639.03
2022-09-23T21:33:07.049Z,98636.28
2022-09-23T21:36:10.878Z,98652.78
2022-09-23T21:39:15.149Z,98646.19
2022-09-23T21:42:18.643Z,98641.19
2022-09-23T21:45:21.983Z,98652.19
2022-09-23T21:48:27.908Z,98654.66
2022-09-23T21:51:34.254Z,98648.03
2022-09-23T21:54:37.635Z,98648.84
2022-09-23T21:57:41.481Z,98632.91
2022-09-23T22:00:45.945Z,98629.00
2022-09-23T22:03:53.826Z,98638.88
2022-09-23T22:06:57.372Z,98632.25
2022-09-23T22:10:00.629Z,98633.91
2022-09-23T22:13:06.275Z,98642.66
2022-09-23T22:16:16.659Z,98628.09
2022-09-23T22:19:21.499Z,98634.94
2022-09-23T22:22:24.748Z,98637.38
2022-09-23T22:25:28.872Z,98627.19
2022-09-23T22:28:51.511Z,98637.09
2022-09-23T22:32:12.372Z,98635.97
2022-09-23T22:35:18.765Z,98625.78
2022-09-23T22:38:23.371Z,98618.34
2022-09-23T22:41:27.587Z,98623.84
2022-09-23T22:44:30.938Z,98614.44
2022-09-23T22:47:37.077Z,98620.44
2022-09-23T22:50:41.901Z,98619.34
2022-09-23T22:53:45.289Z,98618.22
2022-09-23T22:56:48.697Z,98630.84
2022-09-23T22:59:52.083Z,98624.53
2022-09-23T23:02:55.433Z,98614.34
2022-09-23T23:06:02.657Z,98614.34
2022-09-23T23:09:08.087Z,98614.03
2022-09-23T23:12:11.395Z,98614.88
2022-09-23T23:15:15.665Z,98611.59
2022-09-23T23:18:18.932Z,98610.19
2022-09-23T23:21:24.110Z,98601.13
2022-09-23T23:24:27.507Z,98612.41
2022-09-23T23:27:30.901Z,98600.38
2022-09-23T23:30:35.026Z,98603.94
2022-09-23T23:33:38.958Z,98595.19
2022-09-23T23:36:43.958Z,98598.56
2022-09-23T23:39:47.758Z,98601.31
2022-09-23T23:42:51.257Z,98598.88
2022-09-23T23:45:56.248Z,98585.72
2022-09-23T23:49:00.897Z,98587.66
2022-09-23T23:52:05.692Z,98588.78
2022-09-23T23:55:09.779Z,98581.63
2022-09-23T23:58:13.265Z,98586.84
